Time;durP1;ratioP1;P1;durP2;ratioP2;P2;SDS_P1;SDS_P2;PMS_P1;PMS_P2;Temp;Humidity;BMP_temperature;BMP_pressure;BME280_temperature;BME280_humidity;BME280_pressure;Samples;Min_cycle;Max_cycle;Signal;HPM_P1;HPM_P2
2022/03/27 00:00:35;;;;;;;9.10;6.97;;;8.90;99.90;;;;;;5016177;28;20073;-65
2022/03/27 00:03:01;;;;;;;9.23;6.57;;;8.90;99.90;;;;;;5016936;28;20042;-67
2022/03/27 00:05:27;;;;;;;8.95;6.60;;;9.00;99.90;;;;;;5017333;28;20117;-65
2022/03/27 00:07:53;;;;;;;8.80;6.82;;;8.80;99.90;;;;;;5010341;28;20176;-65
2022/03/27 00:10:19;;;;;;;9.45;6.95;;;8.80;99.90;;;;;;5016853;28;20559;-65
2022/03/27 00:12:44;;;;;;;9.30;6.63;;;8.70;99.90;;;;;;4999503;28;20066;-66
2022/03/27 00:15:10;;;;;;;9.15;6.18;;;8.80;99.90;;;;;;5017293;28;20050;-65
2022/03/27 00:17:37;;;;;;;8.18;6.05;;;8.90;99.90;;;;;;4995929;28;20046;-66
2022/03/27 00:20:04;;;;;;;8.45;6.28;;;8.60;99.90;;;;;;5014224;28;20407;-65
2022/03/27 00:22:30;;;;;;;8.85;6.10;;;8.70;99.90;;;;;;4996785;28;20096;-65
2022/03/27 00:24:57;;;;;;;7.53;6.03;;;8.70;99.90;;;;;;4997318;28;20474;-65
2022/03/27 00:27:23;;;;;;;8.27;5.97;;;8.70;99.90;;;;;;4999938;28;20034;-65
2022/03/27 00:29:50;;;;;;;7.22;5.63;;;8.60;99.90;;;;;;4982625;28;20481;-65
2022/03/27 00:32:16;;;;;;;8.30;5.65;;;8.60;99.90;;;;;;5016440;28;20033;-66
2022/03/27 00:34:42;;;;;;;7.90;5.97;;;8.50;99.90;;;;;;5015628;28;20133;-66
2022/03/27 00:37:08;;;;;;;8.43;5.95;;;8.50;99.90;;;;;;4999338;28;20100;-64
2022/03/27 00:39:33;;;;;;;8.55;5.90;;;8.30;99.90;;;;;;5016068;28;20042;-64
2022/03/27 00:41:59;;;;;;;7.22;5.70;;;8.40;99.90;;;;;;5016653;28;20054;-65
2022/03/27 00:44:25;;;;;;;8.77;6.03;;;8.30;99.90;;;;;;5015253;28;20045;-66
2022/03/27 00:46:50;;;;;;;9.35;6.18;;;8.30;99.90;;;;;;4999034;28;20042;-65
2022/03/27 00:49:16;;;;;;;8.25;6.28;;;8.40;99.90;;;;;;5016035;28;20113;-66
2022/03/27 00:51:41;;;;;;;9.77;6.32;;;8.20;99.90;;;;;;5015001;28;20037;-66
2022/03/27 00:54:07;;;;;;;8.98;6.72;;;8.30;99.90;;;;;;5016500;28;20041;-65
2022/03/27 00:56:33;;;;;;;9.18;6.40;;;8.20;99.90;;;;;;5016572;28;20077;-65
2022/03/27 00:58:59;;;;;;;8.25;6.28;;;8.10;99.90;;;;;;5016006;28;20120;-65
2022/03/27 01:01:37;;;;;;;8.52;5.95;;;8.10;99.90;;;;;;5015928;28;20422;-65
2022/03/27 01:04:07;;;;;;;8.43;6.15;;;8.00;99.90;;;;;;5015336;28;20424;-65
2022/03/27 01:06:35;;;;;;;9.07;5.82;;;7.90;99.90;;;;;;4998604;28;20069;-64
2022/03/27 01:11:48;;;;;;;9.35;6.88;;;7.90;99.90;;;;;;4999051;28;20054;-64
2022/03/27 01:14:21;;;;;;;9.35;6.70;;;7.80;99.90;;;;;;5015521;28;20474;-65
2022/03/27 01:16:59;;;;;;;8.73;6.50;;;7.90;99.90;;;;;;4982285;28;20049;-65
2022/03/27 01:19:26;;;;;;;9.88;6.78;;;7.80;99.90;;;;;;5009174;28;20176;-64
2022/03/27 01:21:52;;;;;;;8.68;5.97;;;7.80;99.90;;;;;;5016158;28;20084;-64
2022/03/27 01:24:18;;;;;;;9.13;6.07;;;7.70;99.90;;;;;;5015847;28;20432;-64
2022/03/27 01:26:45;;;;;;;8.25;6.30;;;7.60;99.90;;;;;;5015891;28;20370;-64
2022/03/27 01:29:10;;;;;;;10.05;6.60;;;7.70;99.90;;;;;;5015383;28;20045;-64
2022/03/27 01:31:37;;;;;;;8.43;5.63;;;7.80;99.90;;;;;;5015524;28;20056;-65
2022/03/27 01:34:04;;;;;;;9.05;6.40;;;7.80;99.90;;;;;;5015779;28;20042;-65
2022/03/27 01:36:34;;;;;;;8.52;6.28;;;7.80;99.90;;;;;;5015672;28;20042;-65
2022/03/27 01:39:03;;;;;;;8.18;5.68;;;7.80;99.90;;;;;;5009172;28;20038;-64
2022/03/27 01:41:29;;;;;;;9.75;6.43;;;7.80;99.90;;;;;;5015282;28;20125;-64
2022/03/27 01:43:55;;;;;;;10.30;6.88;;;8.00;99.90;;;;;;4997743;28;20120;-63
2022/03/27 01:46:20;;;;;;;8.77;6.22;;;8.00;99.90;;;;;;4998064;28;20056;-64
2022/03/27 01:48:46;;;;;;;9.43;6.55;;;8.00;99.90;;;;;;5015210;28;20351;-64
2022/03/27 01:51:12;;;;;;;9.30;6.65;;;8.10;99.90;;;;;;5014953;28;20037;-65
2022/03/27 01:53:40;;;;;;;8.07;5.45;;;8.00;99.90;;;;;;5015526;28;20034;-65
2022/03/27 01:56:07;;;;;;;10.63;7.15;;;8.00;99.90;;;;;;5015893;28;20125;-65
2022/03/27 01:58:36;;;;;;;9.52;6.20;;;7.90;99.90;;;;;;4994017;28;20061;-64
2022/03/27 02:01:02;;;;;;;10.13;6.43;;;7.90;99.90;;;;;;5012706;28;20034;-65
2022/03/27 02:03:28;;;;;;;9.38;5.93;;;7.80;99.90;;;;;;5014971;28;20038;-64
2022/03/27 02:05:57;;;;;;;9.05;5.55;;;7.70;99.90;;;;;;5015123;28;20130;-64
2022/03/27 02:08:23;;;;;;;10.23;6.13;;;7.60;99.90;;;;;;5014801;28;20489;-64
2022/03/27 02:10:49;;;;;;;9.38;6.68;;;7.80;99.90;;;;;;4997550;28;20072;-64
2022/03/27 02:13:18;;;;;;;9.05;6.68;;;7.50;99.90;;;;;;4997252;28;20053;-64
2022/03/27 02:15:46;;;;;;;9.07;6.28;;;7.30;99.90;;;;;;5015006;28;20386;-64
2022/03/27 02:18:12;;;;;;;10.88;6.53;;;7.30;99.90;;;;;;5014405;28;20049;-65
2022/03/27 02:20:39;;;;;;;10.43;7.25;;;7.40;99.90;;;;;;5014643;28;20061;-64
2022/03/27 02:23:06;;;;;;;10.55;6.93;;;7.50;99.90;;;;;;5015182;28;20073;-64
2022/03/27 02:25:32;;;;;;;10.32;6.65;;;7.50;99.90;;;;;;5015077;28;20049;-64
2022/03/27 02:27:57;;;;;;;7.80;6.55;;;7.50;99.90;;;;;;5008976;28;20034;-64
2022/03/27 02:30:23;;;;;;;10.13;6.30;;;7.40;99.90;;;;;;5014534;28;20184;-64
2022/03/27 02:32:48;;;;;;;9.40;6.78;;;7.50;99.90;;;;;;5014578;28;20061;-65
2022/03/27 02:35:14;;;;;;;7.47;5.70;;;7.50;99.90;;;;;;4997136;28;20448;-65
2022/03/27 02:37:40;;;;;;;10.15;5.82;;;7.30;99.90;;;;;;5014558;28;20045;-66
2022/03/27 02:40:06;;;;;;;9.73;6.25;;;7.30;99.90;;;;;;5014350;28;20042;-64
2022/03/27 02:42:32;;;;;;;9.88;6.60;;;7.20;99.90;;;;;;4997437;28;20096;-64
2022/03/27 02:44:57;;;;;;;9.85;6.28;;;7.00;99.90;;;;;;4996925;28;20428;-64
2022/03/27 02:47:23;;;;;;;11.27;7.07;;;6.90;99.90;;;;;;4995348;28;20140;-64
2022/03/27 02:49:49;;;;;;;9.13;6.30;;;6.80;99.90;;;;;;4993467;28;20045;-66
2022/03/27 02:52:14;;;;;;;10.25;6.88;;;6.80;99.90;;;;;;5012877;28;20046;-66
2022/03/27 02:54:40;;;;;;;9.40;6.40;;;6.80;99.90;;;;;;5014455;28;20056;-64
2022/03/27 02:57:06;;;;;;;12.02;6.78;;;6.70;99.90;;;;;;5013896;28;20033;-64
2022/03/27 02:59:32;;;;;;;12.07;6.68;;;6.80;99.90;;;;;;4996862;28;20046;-64
2022/03/27 03:01:57;;;;;;;9.77;6.60;;;6.80;99.90;;;;;;4997114;28;20419;-64
2022/03/27 03:04:23;;;;;;;10.57;6.90;;;6.70;99.90;;;;;;5014556;28;20042;-64
2022/03/27 03:06:49;;;;;;;9.68;6.45;;;6.60;99.90;;;;;;4996825;28;20042;-65
2022/03/27 03:09:15;;;;;;;9.88;6.30;;;6.60;99.90;;;;;;5008386;28;20041;-64
2022/03/27 03:11:41;;;;;;;9.27;6.45;;;6.50;99.90;;;;;;4996808;28;20429;-65
2022/03/27 03:14:07;;;;;;;10.45;6.45;;;6.40;99.90;;;;;;5013982;28;20062;-64
2022/03/27 03:16:34;;;;;;;9.65;6.10;;;6.40;99.90;;;;;;4997035;28;20042;-65
2022/03/27 03:19:00;;;;;;;10.85;6.28;;;6.40;99.90;;;;;;4993525;28;20042;-64
2022/03/27 03:21:26;;;;;;;12.50;6.85;;;6.30;99.90;;;;;;4994432;28;20053;-64
2022/03/27 03:23:52;;;;;;;10.02;5.95;;;6.30;99.90;;;;;;4994789;28;20042;-64
2022/03/27 03:26:18;;;;;;;10.63;6.45;;;6.20;99.90;;;;;;4994517;28;20323;-64
2022/03/27 03:28:43;;;;;;;10.45;7.05;;;6.30;99.90;;;;;;4967900;28;20390;-64
2022/03/27 03:31:09;;;;;;;11.15;6.65;;;6.20;99.90;;;;;;4994043;28;20050;-65
2022/03/27 03:33:34;;;;;;;8.68;5.88;;;6.10;99.90;;;;;;4994728;28;20042;-65
2022/03/27 03:36:00;;;;;;;9.98;6.20;;;6.10;99.90;;;;;;4961151;28;20474;-64
2022/03/27 03:38:26;;;;;;;10.27;7.00;;;6.00;99.90;;;;;;4999248;28;20142;-66
2022/03/27 03:40:52;;;;;;;9.15;5.57;;;5.90;99.90;;;;;;4996446;28;20042;-64
2022/03/27 03:43:20;;;;;;;11.00;6.53;;;5.90;99.90;;;;;;5014085;28;20096;-64
2022/03/27 03:45:46;;;;;;;12.60;6.20;;;6.00;99.90;;;;;;4996329;28;20074;-64
2022/03/27 03:48:12;;;;;;;12.52;6.43;;;6.00;99.90;;;;;;5013651;28;20402;-65
2022/03/27 03:50:38;;;;;;;9.55;5.68;;;6.00;99.90;;;;;;5013698;28;20034;-65
2022/03/27 03:53:05;;;;;;;10.50;5.80;;;5.90;99.90;;;;;;4996785;28;20048;-64
2022/03/27 03:55:31;;;;;;;12.77;5.97;;;5.90;99.90;;;;;;5013967;28;20070;-64
2022/03/27 03:57:57;;;;;;;11.15;6.80;;;5.90;99.90;;;;;;5013625;28;20072;-64
2022/03/27 04:00:23;;;;;;;8.45;5.45;;;5.80;99.90;;;;;;4995942;28;20479;-64
2022/03/27 04:02:49;;;;;;;11.73;6.22;;;5.70;99.90;;;;;;5010980;28;20628;-65
2022/03/27 04:05:14;;;;;;;11.80;6.35;;;5.80;99.90;;;;;;5007564;28;20053;-65
2022/03/27 04:07:40;;;;;;;14.18;7.05;;;5.70;99.90;;;;;;5007317;28;20038;-66
2022/03/27 04:10:06;;;;;;;10.70;6.25;;;5.80;99.90;;;;;;5000597;28;20521;-64
2022/03/27 04:12:32;;;;;;;11.50;6.28;;;5.80;99.90;;;;;;4993570;28;20102;-65
2022/03/27 04:14:58;;;;;;;14.10;7.00;;;5.70;99.90;;;;;;4982818;28;20034;-64
2022/03/27 04:17:24;;;;;;;13.13;6.88;;;5.80;99.90;;;;;;4978298;28;20108;-64
2022/03/27 04:19:49;;;;;;;16.92;6.88;;;5.80;99.90;;;;;;4960434;28;20074;-65
2022/03/27 04:22:15;;;;;;;14.10;7.10;;;5.70;99.90;;;;;;4960903;28;20039;-64
2022/03/27 04:24:41;;;;;;;13.95;7.50;;;5.70;99.90;;;;;;4961157;28;20061;-65
2022/03/27 04:27:07;;;;;;;13.57;7.20;;;5.70;99.90;;;;;;4978001;28;20035;-64
2022/03/27 04:29:32;;;;;;;17.02;8.05;;;5.70;99.90;;;;;;4995113;28;20038;-64
2022/03/27 04:31:58;;;;;;;14.77;7.18;;;5.60;99.90;;;;;;4980043;28;20042;-64
2022/03/27 04:34:24;;;;;;;15.95;7.90;;;5.60;99.90;;;;;;4997273;28;20450;-64
2022/03/27 04:36:50;;;;;;;14.43;7.20;;;5.60;99.90;;;;;;4997157;28;20035;-65
2022/03/27 04:39:16;;;;;;;14.60;7.22;;;5.60;99.90;;;;;;4981039;28;20046;-64
2022/03/27 04:41:41;;;;;;;16.40;7.75;;;5.60;99.90;;;;;;4960770;28;20034;-64
2022/03/27 04:44:08;;;;;;;14.55;6.65;;;5.60;99.90;;;;;;4977604;28;20471;-64
2022/03/27 04:46:34;;;;;;;16.00;7.10;;;5.70;99.90;;;;;;4960172;28;20113;-64
2022/03/27 04:48:59;;;;;;;16.35;7.93;;;5.70;99.90;;;;;;4990338;28;20046;-64
2022/03/27 04:51:25;;;;;;;15.80;7.47;;;5.60;99.90;;;;;;4996590;28;20121;-64
2022/03/27 04:53:51;;;;;;;14.23;7.22;;;5.60;99.90;;;;;;4996771;28;20038;-65
2022/03/27 04:56:17;;;;;;;11.07;7.05;;;5.60;99.90;;;;;;4979710;28;20053;-64
2022/03/27 04:58:43;;;;;;;14.43;7.50;;;5.60;99.90;;;;;;4978452;28;20052;-64
2022/03/27 05:01:10;;;;;;;15.43;7.40;;;5.60;99.90;;;;;;4979136;28;20046;-64
2022/03/27 05:03:36;;;;;;;13.48;7.50;;;5.70;99.90;;;;;;4996850;28;20402;-65
2022/03/27 05:06:02;;;;;;;16.63;7.38;;;5.60;99.90;;;;;;4996737;28;20043;-65
2022/03/27 05:08:28;;;;;;;18.67;8.13;;;5.60;99.90;;;;;;4970065;28;20069;-65
2022/03/27 05:10:53;;;;;;;16.02;7.63;;;5.60;99.90;;;;;;4976813;28;20042;-64
2022/03/27 05:13:19;;;;;;;17.15;8.07;;;5.50;99.90;;;;;;4986470;28;20046;-65
2022/03/27 05:15:46;;;;;;;19.00;6.93;;;5.50;99.90;;;;;;4979376;28;20050;-65
2022/03/27 05:18:12;;;;;;;14.77;8.13;;;5.50;99.90;;;;;;5002464;28;20367;-66
2022/03/27 05:20:42;;;;;;;13.63;7.05;;;5.50;99.90;;;;;;5014995;28;20038;-64
2022/03/27 05:23:08;;;;;;;14.05;7.55;;;5.50;99.90;;;;;;5015651;28;20048;-64
2022/03/27 05:25:40;;;;;;;16.33;7.30;;;5.60;99.90;;;;;;5015996;28;20034;-65
2022/03/27 05:28:08;;;;;;;17.15;7.55;;;5.50;99.90;;;;;;5009966;28;20089;-64
2022/03/27 05:30:33;;;;;;;18.40;7.97;;;5.60;99.90;;;;;;4995688;28;20090;-65
2022/03/27 05:32:59;;;;;;;18.05;7.95;;;5.70;99.90;;;;;;4978746;28;20534;-65
2022/03/27 05:35:25;;;;;;;18.80;7.13;;;5.70;99.90;;;;;;4996195;28;20125;-64
2022/03/27 05:37:52;;;;;;;23.23;8.90;;;5.60;99.90;;;;;;4996144;28;20034;-65
2022/03/27 05:40:20;;;;;;;17.40;7.55;;;5.60;99.90;;;;;;4995609;28;20046;-64
2022/03/27 05:42:47;;;;;;;19.17;7.82;;;5.60;99.90;;;;;;4978487;28;20519;-65
2022/03/27 05:45:13;;;;;;;16.60;7.10;;;5.60;99.90;;;;;;4995635;28;20514;-65
2022/03/27 05:47:42;;;;;;;17.70;8.02;;;5.60;99.90;;;;;;4997534;28;20033;-65
2022/03/27 05:50:18;;;;;;;19.77;8.00;;;5.60;99.90;;;;;;5014813;28;20466;-64
2022/03/27 05:52:45;;;;;;;17.70;7.72;;;5.60;99.90;;;;;;4997825;28;20046;-65
2022/03/27 05:55:12;;;;;;;17.85;7.93;;;5.80;99.90;;;;;;5015334;28;20076;-64
2022/03/27 05:57:38;;;;;;;16.30;7.63;;;5.90;99.90;;;;;;4996092;28;20041;-64
2022/03/27 06:00:06;;;;;;;22.52;7.70;;;6.10;99.90;;;;;;4995304;28;20120;-65
2022/03/27 06:02:32;;;;;;;18.58;7.57;;;6.50;99.90;;;;;;4995645;28;20049;-64
2022/03/27 06:04:58;;;;;;;15.88;7.38;;;6.80;99.90;;;;;;4978484;28;20364;-64
2022/03/27 06:07:24;;;;;;;20.92;7.57;;;7.20;99.90;;;;;;4978168;28;20474;-66
2022/03/27 06:09:51;;;;;;;17.35;7.60;;;7.50;99.90;;;;;;4996619;28;20056;-64
2022/03/27 06:12:17;;;;;;;22.65;7.75;;;7.40;99.90;;;;;;5014626;28;20379;-64
2022/03/27 06:14:43;;;;;;;17.40;6.70;;;7.40;99.90;;;;;;5015144;28;20049;-64
2022/03/27 06:17:08;;;;;;;19.08;7.20;;;7.20;99.90;;;;;;4997201;28;20128;-65
2022/03/27 06:19:34;;;;;;;17.27;7.30;;;7.20;99.90;;;;;;5014043;28;20073;-64
2022/03/27 06:22:00;;;;;;;19.50;7.53;;;7.00;99.90;;;;;;5014431;28;20048;-65
2022/03/27 06:24:26;;;;;;;20.25;7.25;;;7.00;99.90;;;;;;4997593;28;20053;-66
2022/03/27 06:26:52;;;;;;;22.58;7.55;;;7.00;99.90;;;;;;5014661;28;20052;-65
2022/03/27 06:29:20;;;;;;;16.10;7.38;;;6.90;99.90;;;;;;4996598;28;20057;-65
2022/03/27 06:31:46;;;;;;;17.77;7.32;;;6.90;99.90;;;;;;5013293;28;20459;-64
2022/03/27 06:34:12;;;;;;;22.23;7.93;;;6.90;99.90;;;;;;4996954;28;20129;-65
2022/03/27 06:36:41;;;;;;;18.58;6.80;;;7.00;99.90;;;;;;5014552;28;20041;-65
2022/03/27 06:39:06;;;;;;;19.92;7.43;;;6.90;99.90;;;;;;4996311;28;20387;-65
2022/03/27 06:41:32;;;;;;;25.65;8.27;;;7.00;99.90;;;;;;5014441;28;20053;-64
2022/03/27 06:43:58;;;;;;;18.65;7.38;;;6.90;99.90;;;;;;5015088;28;20037;-65
2022/03/27 06:46:23;;;;;;;22.55;8.10;;;7.10;99.90;;;;;;5014291;28;20034;-64
2022/03/27 06:48:50;;;;;;;23.15;7.30;;;7.10;99.90;;;;;;4996118;28;20038;-64
2022/03/27 06:51:17;;;;;;;22.70;8.02;;;7.10;99.90;;;;;;5014471;28;20044;-66
2022/03/27 06:53:43;;;;;;;22.95;7.32;;;7.10;99.90;;;;;;4997150;28;20076;-65
2022/03/27 06:56:09;;;;;;;26.80;8.10;;;7.10;99.90;;;;;;4997051;28;20042;-64
2022/03/27 06:58:35;;;;;;;28.23;8.57;;;7.10;99.90;;;;;;4996945;28;20451;-65
2022/03/27 07:03:45;;;;;;;28.63;8.43;;;7.20;99.90;;;;;;4996756;28;20046;-66
2022/03/27 07:06:11;;;;;;;26.15;8.98;;;7.20;99.90;;;;;;4996681;28;20052;-64
2022/03/27 07:08:37;;;;;;;28.40;8.43;;;7.50;99.90;;;;;;5014057;28;20038;-64
2022/03/27 07:11:03;;;;;;;23.08;6.60;;;7.40;99.90;;;;;;5013858;28;20382;-64
2022/03/27 07:13:30;;;;;;;23.42;7.60;;;7.60;99.90;;;;;;5013749;28;20438;-64
2022/03/27 07:15:58;;;;;;;23.42;8.23;;;7.50;99.90;;;;;;5014141;28;20048;-64
2022/03/27 07:18:24;;;;;;;26.48;8.65;;;7.60;99.90;;;;;;4996543;28;20058;-64
2022/03/27 07:20:50;;;;;;;26.10;8.68;;;7.70;99.90;;;;;;5013322;28;20356;-65
2022/03/27 07:23:19;;;;;;;26.17;9.20;;;7.60;99.90;;;;;;5014145;28;20112;-65
2022/03/27 07:25:47;;;;;;;24.80;7.95;;;7.70;99.90;;;;;;5013718;28;20050;-66
2022/03/27 07:28:14;;;;;;;24.60;8.73;;;7.80;99.90;;;;;;4966214;28;20026;-65
2022/03/27 07:30:41;;;;;;;22.27;8.05;;;7.90;99.90;;;;;;4976363;28;20045;-66
2022/03/27 07:33:07;;;;;;;24.25;8.27;;;8.10;99.90;;;;;;4980078;28;20034;-64
2022/03/27 07:35:34;;;;;;;30.20;8.40;;;8.30;99.90;;;;;;4998629;28;20103;-64
2022/03/27 07:38:00;;;;;;;25.88;7.70;;;8.50;99.90;;;;;;4995451;28;20045;-67
2022/03/27 07:40:27;;;;;;;27.23;8.77;;;8.50;99.90;;;;;;4995753;28;20081;-64
2022/03/27 07:42:54;;;;;;;23.73;7.47;;;8.30;99.90;;;;;;5004793;28;20038;-63
2022/03/27 07:45:22;;;;;;;26.35;8.68;;;8.20;99.90;;;;;;5002888;28;20031;-64
2022/03/27 07:47:49;;;;;;;24.67;7.35;;;8.20;99.90;;;;;;4990802;28;20480;-64
2022/03/27 07:50:16;;;;;;;28.63;7.97;;;8.20;99.90;;;;;;4994042;28;20426;-64
2022/03/27 07:52:44;;;;;;;24.27;7.97;;;8.30;99.90;;;;;;4994274;28;20093;-66
2022/03/27 07:55:11;;;;;;;29.40;8.40;;;8.30;99.90;;;;;;5016143;28;20069;-65
2022/03/27 07:57:37;;;;;;;27.05;7.97;;;8.50;99.90;;;;;;5012453;28;20046;-65
2022/03/27 08:00:04;;;;;;;25.77;8.77;;;8.80;99.90;;;;;;5011272;28;20359;-67
2022/03/27 08:02:30;;;;;;;22.02;7.60;;;9.10;99.90;;;;;;5008761;28;20131;-67
2022/03/27 08:04:57;;;;;;;24.20;7.40;;;9.40;99.90;;;;;;5012966;28;20358;-65
2022/03/27 08:07:22;;;;;;;22.83;7.80;;;9.40;99.90;;;;;;5009942;28;20050;-65
2022/03/27 08:09:48;;;;;;;21.92;7.70;;;9.50;99.90;;;;;;5011821;28;20452;-65
2022/03/27 08:12:14;;;;;;;22.42;7.95;;;9.70;99.90;;;;;;5016427;28;20060;-66
2022/03/27 08:14:40;;;;;;;26.95;8.00;;;9.70;99.90;;;;;;4991917;28;20050;-66
2022/03/27 08:17:06;;;;;;;29.95;7.47;;;9.60;99.90;;;;;;5010937;28;20038;-64
2022/03/27 08:19:33;;;;;;;29.80;8.65;;;9.80;99.90;;;;;;4994836;28;20050;-65
2022/03/27 08:22:00;;;;;;;24.70;7.78;;;9.80;99.90;;;;;;5003864;28;20069;-65
2022/03/27 08:24:26;;;;;;;22.58;7.90;;;9.80;99.90;;;;;;5013438;28;20030;-65
2022/03/27 08:26:59;;;;;;;27.13;7.72;;;9.80;99.90;;;;;;4977911;28;20478;-64
2022/03/27 08:29:31;;;;;;;25.35;8.75;;;9.70;99.90;;;;;;4991330;28;20116;-66
2022/03/27 08:32:00;;;;;;;20.33;7.35;;;9.70;99.90;;;;;;4996346;28;20053;-65
2022/03/27 08:34:28;;;;;;;26.60;8.07;;;9.60;99.90;;;;;;5016725;28;20469;-64
2022/03/27 08:36:54;;;;;;;31.17;9.15;;;9.70;99.90;;;;;;5016717;28;20052;-64
2022/03/27 08:39:20;;;;;;;30.38;8.82;;;9.90;99.90;;;;;;5013677;28;20454;-66
2022/03/27 08:41:49;;;;;;;28.10;8.57;;;10.00;99.90;;;;;;5016852;28;20042;-64
2022/03/27 08:44:18;;;;;;;29.67;8.25;;;10.00;99.90;;;;;;5009465;28;20046;-65
2022/03/27 08:46:45;;;;;;;24.60;8.40;;;10.20;99.90;;;;;;4996762;28;20103;-64
2022/03/27 08:49:30;;;;;;;27.30;7.90;;;10.20;99.90;;;;;;5013722;28;20037;-66
2022/03/27 08:52:17;;;;;;;29.73;8.13;;;10.30;99.90;;;;;;5012357;28;20053;-65
2022/03/27 08:55:06;;;;;;;31.08;8.88;;;10.20;99.90;;;;;;4997782;28;20412;-65
2022/03/27 08:57:51;;;;;;;27.85;7.57;;;10.40;99.90;;;;;;5015857;28;20055;-65
2022/03/27 09:00:25;;;;;;;28.13;7.53;;;10.60;99.90;;;;;;5011464;28;20050;-67
2022/03/27 09:02:51;;;;;;;24.83;7.72;;;10.50;99.90;;;;;;5015658;28;20037;-67
2022/03/27 09:05:20;;;;;;;32.97;9.55;;;10.40;99.90;;;;;;5016016;28;20049;-69
2022/03/27 09:07:46;;;;;;;29.15;9.50;;;10.40;99.90;;;;;;5014552;28;20026;-65
2022/03/27 09:10:12;;;;;;;26.50;7.85;;;10.50;99.90;;;;;;5014965;28;20355;-65
2022/03/27 09:12:38;;;;;;;27.45;7.55;;;10.60;99.90;;;;;;5015724;28;20049;-66
2022/03/27 09:15:11;;;;;;;26.13;8.10;;;10.80;99.90;;;;;;4982050;28;20096;-66
2022/03/27 09:17:55;;;;;;;23.58;7.28;;;10.80;99.90;;;;;;5015019;28;20060;-65
2022/03/27 09:20:33;;;;;;;23.38;7.05;;;10.70;99.90;;;;;;4997480;28;20088;-66
2022/03/27 09:23:21;;;;;;;21.05;7.57;;;11.00;99.90;;;;;;5015835;28;20049;-66
2022/03/27 09:26:09;;;;;;;23.52;7.20;;;10.90;99.90;;;;;;5015775;28;20450;-65
2022/03/27 09:28:36;;;;;;;20.88;7.93;;;10.90;99.90;;;;;;5013000;28;20076;-65
2022/03/27 09:31:18;;;;;;;22.80;6.57;;;11.10;99.90;;;;;;5014799;28;20034;-66
2022/03/27 09:33:49;;;;;;;30.50;6.97;;;11.10;99.90;;;;;;5012639;28;20041;-65
2022/03/27 09:36:19;;;;;;;26.13;6.60;;;11.20;99.90;;;;;;5015350;28;20056;-65
2022/03/27 09:39:16;;;;;;;23.05;6.65;;;11.40;99.90;;;;;;5013591;28;20132;-65
2022/03/27 09:41:44;;;;;;;24.35;6.55;;;11.40;99.90;;;;;;4992963;28;20050;-66
2022/03/27 09:44:11;;;;;;;24.02;6.78;;;11.40;99.90;;;;;;4997402;28;20375;-66
2022/03/27 09:46:58;;;;;;;25.20;7.18;;;11.40;99.90;;;;;;5014866;28;20040;-65
2022/03/27 09:49:46;;;;;;;22.33;6.88;;;11.50;99.90;;;;;;4989901;28;20087;-65
2022/03/27 09:52:15;;;;;;;28.30;7.15;;;11.70;99.90;;;;;;5010895;28;20056;-66
2022/03/27 09:54:45;;;;;;;20.88;6.75;;;11.70;99.90;;;;;;4994827;28;20436;-65
2022/03/27 09:57:29;;;;;;;20.10;5.57;;;11.70;99.90;;;;;;5011968;28;20046;-67
2022/03/27 10:00:12;;;;;;;24.65;6.10;;;11.80;99.90;;;;;;5010612;28;20125;-66
2022/03/27 10:02:41;;;;;;;27.50;6.95;;;12.00;99.90;;;;;;5001380;28;20061;-65
2022/03/27 10:05:08;;;;;;;22.30;5.75;;;12.10;99.90;;;;;;5013965;28;20120;-66
2022/03/27 10:07:47;;;;;;;22.27;5.88;;;12.10;99.90;;;;;;4997171;28;20082;-66
2022/03/27 10:10:17;;;;;;;19.45;5.07;;;12.10;99.90;;;;;;4994820;28;20383;-66
2022/03/27 10:12:48;;;;;;;22.23;5.60;;;12.30;99.90;;;;;;4994048;28;20050;-66
2022/03/27 10:15:19;;;;;;;20.77;5.32;;;12.40;99.90;;;;;;5014262;28;20059;-66
2022/03/27 10:18:17;;;;;;;26.52;5.82;;;12.30;99.90;;;;;;5014638;28;20092;-66
2022/03/27 10:20:45;;;;;;;23.77;6.22;;;12.30;99.90;;;;;;4996488;28;20042;-66
2022/03/27 10:23:17;;;;;;;23.73;5.50;;;12.50;99.90;;;;;;4990451;28;20157;-66
2022/03/27 10:25:45;;;;;;;20.17;5.07;;;12.70;99.90;;;;;;5004032;28;20130;-66
2022/03/27 10:28:12;;;;;;;22.80;5.00;;;12.80;99.90;;;;;;5007179;28;20037;-64
2022/03/27 10:30:38;;;;;;;17.02;4.50;;;12.90;99.90;;;;;;5012213;28;20463;-65
2022/03/27 10:33:07;;;;;;;20.88;5.55;;;12.90;99.90;;;;;;5013436;28;20048;-66
2022/03/27 10:35:36;;;;;;;20.17;5.32;;;12.90;99.90;;;;;;5014544;28;20149;-66
2022/03/27 10:38:14;;;;;;;19.38;5.07;;;13.10;99.90;;;;;;5013997;28;20064;-65
2022/03/27 10:41:01;;;;;;;19.75;4.70;;;13.20;99.90;;;;;;4993117;28;20041;-66
2022/03/27 10:43:49;;;;;;;18.15;4.93;;;13.10;99.90;;;;;;5006274;28;20038;-65
2022/03/27 10:46:17;;;;;;;16.35;4.90;;;13.10;99.90;;;;;;5014060;28;20062;-65
2022/03/27 10:48:44;;;;;;;19.02;5.25;;;13.20;99.90;;;;;;5013009;28;20038;-66
2022/03/27 10:51:30;;;;;;;24.80;4.93;;;13.40;99.90;;;;;;5010975;28;20049;-65
2022/03/27 10:54:11;;;;;;;20.20;5.63;;;13.40;99.90;;;;;;4992593;28;20060;-65
2022/03/27 10:56:45;;;;;;;23.98;6.32;;;13.40;99.90;;;;;;5010420;28;20343;-65
2022/03/27 10:59:11;;;;;;;17.73;5.03;;;13.40;99.90;;;;;;4977033;28;20467;-66
2022/03/27 11:01:39;;;;;;;15.48;4.18;;;13.60;99.90;;;;;;5011445;28;20057;-65
2022/03/27 11:04:16;;;;;;;20.52;5.28;;;13.60;99.90;;;;;;4994710;28;20084;-66
2022/03/27 11:06:44;;;;;;;22.17;5.53;;;13.60;99.90;;;;;;5012591;28;20149;-66
2022/03/27 11:09:14;;;;;;;23.00;5.57;;;13.60;99.90;;;;;;5011755;28;20525;-67
2022/03/27 11:11:40;;;;;;;21.30;5.38;;;13.80;99.90;;;;;;5012654;28;20053;-66
2022/03/27 11:14:08;;;;;;;19.20;5.13;;;13.70;99.90;;;;;;5012677;28;20054;-65
2022/03/27 11:16:37;;;;;;;21.95;4.80;;;13.70;99.90;;;;;;5013987;28;20166;-65
2022/03/27 11:19:04;;;;;;;21.70;5.45;;;14.00;99.20;;;;;;4999503;28;20053;-66
2022/03/27 11:21:29;;;;;;;16.52;4.97;;;14.10;98.70;;;;;;5017876;28;20367;-65
2022/03/27 11:24:17;;;;;;;14.68;4.35;;;14.10;99.60;;;;;;5017744;28;20048;-66
2022/03/27 11:26:43;;;;;;;15.95;4.47;;;14.30;97.50;;;;;;5000513;28;20456;-65
2022/03/27 11:29:23;;;;;;;18.35;4.32;;;14.30;97.80;;;;;;5016111;28;20045;-65
2022/03/27 11:32:08;;;;;;;17.58;4.55;;;14.30;96.90;;;;;;5000658;28;20052;-65
2022/03/27 11:34:38;;;;;;;21.40;4.60;;;14.30;97.50;;;;;;5017800;28;20471;-66
2022/03/27 11:37:25;;;;;;;20.27;4.53;;;14.40;96.70;;;;;;5000234;28;20054;-67
2022/03/27 11:39:51;;;;;;;16.05;4.60;;;14.50;96.50;;;;;;4998536;28;20033;-66
2022/03/27 11:42:33;;;;;;;17.70;4.47;;;14.60;95.80;;;;;;5016968;28;20034;-65
2022/03/27 11:45:20;;;;;;;18.10;4.72;;;14.80;94.90;;;;;;5016912;28;20038;-65
2022/03/27 11:47:49;;;;;;;15.05;3.95;;;14.40;95.60;;;;;;4998953;28;20041;-66
2022/03/27 11:50:32;;;;;;;14.95;4.10;;;14.40;96.00;;;;;;4992857;28;20105;-65
2022/03/27 11:52:58;;;;;;;15.73;3.70;;;14.70;94.50;;;;;;4980373;28;20133;-65
2022/03/27 11:55:28;;;;;;;15.55;3.70;;;14.90;94.90;;;;;;5010223;28;20045;-64
2022/03/27 11:57:56;;;;;;;17.50;3.85;;;15.10;93.60;;;;;;5015617;28;20073;-63
2022/03/27 12:00:42;;;;;;;15.80;3.90;;;15.00;92.90;;;;;;5016349;28;20437;-65
2022/03/27 12:03:22;;;;;;;14.13;4.07;;;15.10;92.40;;;;;;5015429;28;20363;-64
2022/03/27 12:05:48;;;;;;;16.05;4.32;;;14.90;94.00;;;;;;4997860;28;20052;-63
2022/03/27 12:08:17;;;;;;;35.05;5.57;;;14.90;94.40;;;;;;4997160;28;20122;-64
2022/03/27 12:10:56;;;;;;;14.05;4.28;;;15.00;93.60;;;;;;5015580;28;20050;-66
2022/03/27 12:13:23;;;;;;;20.23;4.45;;;15.00;92.80;;;;;;4987988;28;20494;-67
2022/03/27 12:15:53;;;;;;;14.25;4.18;;;15.00;93.30;;;;;;4995177;28;20100;-65
2022/03/27 12:18:25;;;;;;;13.77;4.50;;;15.30;92.90;;;;;;4989763;28;20488;-66
2022/03/27 12:20:51;;;;;;;18.73;4.10;;;15.20;94.20;;;;;;4976331;28;20067;-66
2022/03/27 12:23:26;;;;;;;15.23;3.78;;;15.10;93.30;;;;;;4990868;28;20126;-66
2022/03/27 12:29:49;;;;;;;13.35;3.90;;;15.30;91.30;;;;;;4976097;28;20194;-65
2022/03/27 12:32:27;;;;;;;18.98;4.30;;;15.30;91.40;;;;;;4978683;28;20054;-66
2022/03/27 12:34:55;;;;;;;16.55;4.13;;;15.50;91.90;;;;;;4980189;28;20140;-66
2022/03/27 12:37:23;;;;;;;14.75;3.63;;;15.40;91.70;;;;;;4996544;28;20113;-66
2022/03/27 12:39:49;;;;;;;13.63;3.58;;;15.80;90.20;;;;;;4994989;28;20352;-65
2022/03/27 12:42:40;;;;;;;13.52;4.05;;;15.70;91.10;;;;;;4995506;28;20100;-65
2022/03/27 12:45:26;;;;;;;15.88;3.53;;;15.70;90.50;;;;;;4995992;28;20121;-66
2022/03/27 12:47:58;;;;;;;14.05;3.45;;;15.80;90.10;;;;;;4990840;28;20526;-68
2022/03/27 12:50:38;;;;;;;16.90;4.38;;;15.80;91.00;;;;;;4978291;28;20084;-66
2022/03/27 12:53:20;;;;;;;15.60;3.58;;;16.00;90.20;;;;;;4978439;28;20050;-66
2022/03/27 12:55:48;;;;;;;14.65;3.58;;;16.00;87.40;;;;;;4996428;28;20077;-65
2022/03/27 12:58:35;;;;;;;14.32;4.00;;;16.00;88.10;;;;;;4975489;28;20042;-66
2022/03/27 13:01:15;;;;;;;17.08;3.88;;;15.80;89.30;;;;;;4961258;28;20038;-66
2022/03/27 13:04:00;;;;;;;12.75;3.63;;;15.90;88.50;;;;;;4994272;28;20034;-67